sensor_id;sensor_type;location;lat;lon;timestamp;P1;durP1;ratioP1;P2;durP2;ratioP2
22129;SDS011;11231;50.746;4.272;2023-06-04T00:00:48;2.80;;;1.07;;
22129;SDS011;11231;50.746;4.272;2023-06-04T00:03:13;1.97;;;1.30;;
22129;SDS011;11231;50.746;4.272;2023-06-04T00:05:39;4.03;;;1.40;;
22129;SDS011;11231;50.746;4.272;2023-06-04T00:08:05;4.00;;;1.40;;
22129;SDS011;11231;50.746;4.272;2023-06-04T00:10:31;2.57;;;1.00;;
22129;SDS011;11231;50.746;4.272;2023-06-04T00:12:58;3.83;;;1.10;;
22129;SDS011;11231;50.746;4.272;2023-06-04T00:15:25;4.67;;;1.13;;
22129;SDS011;11231;50.746;4.272;2023-06-04T00:17:51;3.13;;;1.00;;
22129;SDS011;11231;50.746;4.272;2023-06-04T00:20:17;4.07;;;1.10;;
22129;SDS011;11231;50.746;4.272;2023-06-04T00:22:43;4.80;;;1.40;;
22129;SDS011;11231;50.746;4.272;2023-06-04T00:25:09;4.80;;;1.23;;
22129;SDS011;11231;50.746;4.272;2023-06-04T00:27:35;4.07;;;1.20;;
22129;SDS011;11231;50.746;4.272;2023-06-04T00:30:02;2.90;;;1.13;;
22129;SDS011;11231;50.746;4.272;2023-06-04T00:32:28;3.20;;;1.13;;
22129;SDS011;11231;50.746;4.272;2023-06-04T00:34:55;1.70;;;1.10;;
22129;SDS011;11231;50.746;4.272;2023-06-04T00:37:23;4.47;;;1.23;;
22129;SDS011;11231;50.746;4.272;2023-06-04T00:39:49;4.33;;;1.33;;
22129;SDS011;11231;50.746;4.272;2023-06-04T00:42:16;4.93;;;1.20;;
22129;SDS011;11231;50.746;4.272;2023-06-04T00:44:42;2.73;;;0.87;;
22129;SDS011;11231;50.746;4.272;2023-06-04T00:47:12;5.93;;;1.20;;
22129;SDS011;11231;50.746;4.272;2023-06-04T00:49:42;4.43;;;1.10;;
22129;SDS011;11231;50.746;4.272;2023-06-04T00:52:08;5.47;;;1.10;;
22129;SDS011;11231;50.746;4.272;2023-06-04T00:54:35;2.70;;;1.27;;
22129;SDS011;11231;50.746;4.272;2023-06-04T00:57:02;4.73;;;1.10;;
22129;SDS011;11231;50.746;4.272;2023-06-04T00:59:29;7.40;;;1.40;;
22129;SDS011;11231;50.746;4.272;2023-06-04T01:07:27;3.07;;;1.10;;
22129;SDS011;11231;50.746;4.272;2023-06-04T01:09:56;2.37;;;1.13;;
22129;SDS011;11231;50.746;4.272;2023-06-04T01:12:22;4.17;;;1.30;;
22129;SDS011;11231;50.746;4.272;2023-06-04T01:14:48;8.70;;;1.80;;
22129;SDS011;11231;50.746;4.272;2023-06-04T01:17:21;3.60;;;1.20;;
22129;SDS011;11231;50.746;4.272;2023-06-04T01:20:02;5.33;;;1.40;;
22129;SDS011;11231;50.746;4.272;2023-06-04T01:22:33;3.63;;;1.17;;
22129;SDS011;11231;50.746;4.272;2023-06-04T01:25:04;2.23;;;1.10;;
22129;SDS011;11231;50.746;4.272;2023-06-04T01:27:50;1.63;;;0.90;;
22129;SDS011;11231;50.746;4.272;2023-06-04T01:30:24;4.53;;;1.30;;
22129;SDS011;11231;50.746;4.272;2023-06-04T01:32:53;6.07;;;1.30;;
22129;SDS011;11231;50.746;4.272;2023-06-04T01:35:20;4.47;;;1.30;;
22129;SDS011;11231;50.746;4.272;2023-06-04T01:37:47;5.07;;;1.20;;
22129;SDS011;11231;50.746;4.272;2023-06-04T01:40:13;5.23;;;1.23;;
22129;SDS011;11231;50.746;4.272;2023-06-04T01:42:40;2.40;;;1.10;;
22129;SDS011;11231;50.746;4.272;2023-06-04T01:45:07;5.50;;;1.40;;
22129;SDS011;11231;50.746;4.272;2023-06-04T01:47:33;4.50;;;1.40;;
22129;SDS011;11231;50.746;4.272;2023-06-04T01:50:02;2.77;;;1.20;;
22129;SDS011;11231;50.746;4.272;2023-06-04T01:52:29;5.00;;;1.37;;
22129;SDS011;11231;50.746;4.272;2023-06-04T01:54:54;4.93;;;1.23;;
22129;SDS011;11231;50.746;4.272;2023-06-04T01:57:23;3.77;;;1.30;;
22129;SDS011;11231;50.746;4.272;2023-06-04T01:59:50;5.83;;;1.10;;
22129;SDS011;11231;50.746;4.272;2023-06-04T02:02:16;5.80;;;1.60;;
22129;SDS011;11231;50.746;4.272;2023-06-04T02:04:42;7.10;;;1.83;;
22129;SDS011;11231;50.746;4.272;2023-06-04T02:07:08;4.80;;;1.50;;
22129;SDS011;11231;50.746;4.272;2023-06-04T02:09:35;5.20;;;1.40;;
22129;SDS011;11231;50.746;4.272;2023-06-04T02:12:01;4.60;;;1.30;;
22129;SDS011;11231;50.746;4.272;2023-06-04T02:14:27;3.90;;;1.50;;
22129;SDS011;11231;50.746;4.272;2023-06-04T02:16:52;7.80;;;1.47;;
22129;SDS011;11231;50.746;4.272;2023-06-04T02:19:23;4.20;;;1.40;;
22129;SDS011;11231;50.746;4.272;2023-06-04T02:21:51;5.47;;;1.60;;
22129;SDS011;11231;50.746;4.272;2023-06-04T02:24:17;2.80;;;1.30;;
22129;SDS011;11231;50.746;4.272;2023-06-04T02:26:43;3.37;;;1.40;;
22129;SDS011;11231;50.746;4.272;2023-06-04T02:29:09;8.40;;;1.50;;
22129;SDS011;11231;50.746;4.272;2023-06-04T02:31:34;3.70;;;1.40;;
22129;SDS011;11231;50.746;4.272;2023-06-04T02:34:00;6.73;;;1.80;;
22129;SDS011;11231;50.746;4.272;2023-06-04T02:36:30;3.33;;;1.70;;
22129;SDS011;11231;50.746;4.272;2023-06-04T02:38:55;7.63;;;1.80;;
22129;SDS011;11231;50.746;4.272;2023-06-04T02:41:21;5.43;;;1.70;;
22129;SDS011;11231;50.746;4.272;2023-06-04T02:43:48;6.77;;;2.07;;
22129;SDS011;11231;50.746;4.272;2023-06-04T02:46:14;3.53;;;1.70;;
22129;SDS011;11231;50.746;4.272;2023-06-04T02:48:40;5.20;;;1.77;;
22129;SDS011;11231;50.746;4.272;2023-06-04T02:51:06;5.33;;;1.83;;
22129;SDS011;11231;50.746;4.272;2023-06-04T02:53:35;6.23;;;2.10;;
22129;SDS011;11231;50.746;4.272;2023-06-04T02:56:01;4.57;;;2.17;;
22129;SDS011;11231;50.746;4.272;2023-06-04T02:58:27;8.87;;;2.00;;
22129;SDS011;11231;50.746;4.272;2023-06-04T03:00:54;8.03;;;2.00;;
22129;SDS011;11231;50.746;4.272;2023-06-04T03:03:20;4.33;;;1.80;;
22129;SDS011;11231;50.746;4.272;2023-06-04T03:05:46;4.57;;;1.87;;
22129;SDS011;11231;50.746;4.272;2023-06-04T03:08:13;4.90;;;1.80;;
22129;SDS011;11231;50.746;4.272;2023-06-04T03:10:39;7.67;;;2.10;;
22129;SDS011;11231;50.746;4.272;2023-06-04T03:13:05;6.57;;;2.00;;
22129;SDS011;11231;50.746;4.272;2023-06-04T03:15:30;4.97;;;2.00;;
22129;SDS011;11231;50.746;4.272;2023-06-04T03:17:56;5.90;;;2.37;;
22129;SDS011;11231;50.746;4.272;2023-06-04T03:20:22;6.57;;;2.50;;
22129;SDS011;11231;50.746;4.272;2023-06-04T03:22:50;8.43;;;2.50;;
22129;SDS011;11231;50.746;4.272;2023-06-04T03:25:16;7.07;;;2.40;;
22129;SDS011;11231;50.746;4.272;2023-06-04T03:27:42;7.83;;;2.50;;
22129;SDS011;11231;50.746;4.272;2023-06-04T03:30:08;5.40;;;2.40;;
22129;SDS011;11231;50.746;4.272;2023-06-04T03:32:53;7.47;;;2.30;;
22129;SDS011;11231;50.746;4.272;2023-06-04T03:35:19;7.30;;;2.63;;
22129;SDS011;11231;50.746;4.272;2023-06-04T03:37:44;5.60;;;2.23;;
22129;SDS011;11231;50.746;4.272;2023-06-04T03:40:11;6.53;;;2.50;;
22129;SDS011;11231;50.746;4.272;2023-06-04T03:42:40;7.07;;;2.43;;
22129;SDS011;11231;50.746;4.272;2023-06-04T03:45:08;7.70;;;2.20;;
22129;SDS011;11231;50.746;4.272;2023-06-04T03:47:35;5.60;;;2.17;;
22129;SDS011;11231;50.746;4.272;2023-06-04T03:50:02;8.40;;;2.47;;
22129;SDS011;11231;50.746;4.272;2023-06-04T03:52:28;6.63;;;2.30;;
22129;SDS011;11231;50.746;4.272;2023-06-04T03:54:56;5.00;;;2.50;;
22129;SDS011;11231;50.746;4.272;2023-06-04T03:57:22;5.00;;;2.00;;
22129;SDS011;11231;50.746;4.272;2023-06-04T03:59:48;9.93;;;2.40;;
22129;SDS011;11231;50.746;4.272;2023-06-04T04:02:15;5.50;;;2.40;;
22129;SDS011;11231;50.746;4.272;2023-06-04T04:04:43;6.50;;;2.10;;
22129;SDS011;11231;50.746;4.272;2023-06-04T04:07:09;6.60;;;2.63;;
22129;SDS011;11231;50.746;4.272;2023-06-04T04:09:36;4.57;;;2.20;;
22129;SDS011;11231;50.746;4.272;2023-06-04T04:12:03;7.60;;;2.10;;
22129;SDS011;11231;50.746;4.272;2023-06-04T04:14:29;5.03;;;2.30;;
22129;SDS011;11231;50.746;4.272;2023-06-04T04:16:55;5.40;;;2.40;;
22129;SDS011;11231;50.746;4.272;2023-06-04T04:19:22;8.37;;;2.70;;
22129;SDS011;11231;50.746;4.272;2023-06-04T04:21:48;7.90;;;2.50;;
22129;SDS011;11231;50.746;4.272;2023-06-04T04:24:22;6.90;;;2.40;;
22129;SDS011;11231;50.746;4.272;2023-06-04T04:26:49;8.43;;;2.30;;
22129;SDS011;11231;50.746;4.272;2023-06-04T04:29:17;6.77;;;2.60;;
22129;SDS011;11231;50.746;4.272;2023-06-04T04:31:49;6.17;;;2.53;;
22129;SDS011;11231;50.746;4.272;2023-06-04T04:34:16;6.93;;;2.30;;
22129;SDS011;11231;50.746;4.272;2023-06-04T04:36:43;6.70;;;2.30;;
22129;SDS011;11231;50.746;4.272;2023-06-04T04:39:09;8.93;;;2.70;;
22129;SDS011;11231;50.746;4.272;2023-06-04T04:41:36;6.00;;;2.20;;
22129;SDS011;11231;50.746;4.272;2023-06-04T04:44:04;9.30;;;2.80;;
22129;SDS011;11231;50.746;4.272;2023-06-04T04:46:31;5.00;;;2.10;;
22129;SDS011;11231;50.746;4.272;2023-06-04T04:48:57;8.77;;;2.37;;
22129;SDS011;11231;50.746;4.272;2023-06-04T04:51:23;7.30;;;2.33;;
22129;SDS011;11231;50.746;4.272;2023-06-04T04:53:50;6.13;;;2.20;;
22129;SDS011;11231;50.746;4.272;2023-06-04T04:56:17;5.13;;;2.43;;
22129;SDS011;11231;50.746;4.272;2023-06-04T04:58:47;6.20;;;2.67;;
22129;SDS011;11231;50.746;4.272;2023-06-04T05:01:13;6.10;;;2.27;;
22129;SDS011;11231;50.746;4.272;2023-06-04T05:03:40;5.57;;;2.30;;
22129;SDS011;11231;50.746;4.272;2023-06-04T05:06:08;7.93;;;2.40;;
22129;SDS011;11231;50.746;4.272;2023-06-04T05:08:33;5.70;;;2.23;;
22129;SDS011;11231;50.746;4.272;2023-06-04T05:10:59;6.17;;;2.20;;
22129;SDS011;11231;50.746;4.272;2023-06-04T05:13:25;5.87;;;2.27;;
22129;SDS011;11231;50.746;4.272;2023-06-04T05:15:57;5.93;;;2.53;;
22129;SDS011;11231;50.746;4.272;2023-06-04T05:18:25;6.53;;;2.10;;
22129;SDS011;11231;50.746;4.272;2023-06-04T05:20:57;6.43;;;2.43;;
22129;SDS011;11231;50.746;4.272;2023-06-04T05:23:26;7.53;;;2.30;;
22129;SDS011;11231;50.746;4.272;2023-06-04T05:25:52;5.20;;;2.30;;
22129;SDS011;11231;50.746;4.272;2023-06-04T05:28:19;5.43;;;2.33;;
22129;SDS011;11231;50.746;4.272;2023-06-04T05:30:46;5.13;;;2.20;;
22129;SDS011;11231;50.746;4.272;2023-06-04T05:33:14;8.10;;;2.80;;
22129;SDS011;11231;50.746;4.272;2023-06-04T05:35:53;5.20;;;2.30;;
22129;SDS011;11231;50.746;4.272;2023-06-04T05:38:24;8.17;;;2.50;;
22129;SDS011;11231;50.746;4.272;2023-06-04T05:40:59;6.40;;;2.43;;
22129;SDS011;11231;50.746;4.272;2023-06-04T05:43:30;7.13;;;2.50;;
22129;SDS011;11231;50.746;4.272;2023-06-04T05:45:56;4.93;;;2.30;;
22129;SDS011;11231;50.746;4.272;2023-06-04T05:48:21;9.77;;;2.50;;
22129;SDS011;11231;50.746;4.272;2023-06-04T05:50:47;5.77;;;2.43;;
22129;SDS011;11231;50.746;4.272;2023-06-04T05:53:14;6.57;;;2.70;;
22129;SDS011;11231;50.746;4.272;2023-06-04T05:55:40;5.93;;;2.33;;
22129;SDS011;11231;50.746;4.272;2023-06-04T05:58:06;4.10;;;2.20;;
22129;SDS011;11231;50.746;4.272;2023-06-04T06:00:32;7.53;;;2.43;;
22129;SDS011;11231;50.746;4.272;2023-06-04T06:02:58;5.37;;;2.20;;
22129;SDS011;11231;50.746;4.272;2023-06-04T06:05:40;7.67;;;2.60;;
22129;SDS011;11231;50.746;4.272;2023-06-04T06:08:06;6.83;;;2.60;;
22129;SDS011;11231;50.746;4.272;2023-06-04T06:10:32;6.73;;;2.60;;
22129;SDS011;11231;50.746;4.272;2023-06-04T06:12:58;4.50;;;2.27;;
22129;SDS011;11231;50.746;4.272;2023-06-04T06:15:26;5.67;;;2.53;;
22129;SDS011;11231;50.746;4.272;2023-06-04T06:17:52;4.27;;;2.10;;
22129;SDS011;11231;50.746;4.272;2023-06-04T06:20:18;6.50;;;2.37;;
22129;SDS011;11231;50.746;4.272;2023-06-04T06:22:45;5.77;;;2.00;;
22129;SDS011;11231;50.746;4.272;2023-06-04T06:25:12;6.40;;;2.30;;
22129;SDS011;11231;50.746;4.272;2023-06-04T06:27:42;5.73;;;2.10;;
22129;SDS011;11231;50.746;4.272;2023-06-04T06:30:10;7.90;;;2.23;;
22129;SDS011;11231;50.746;4.272;2023-06-04T06:32:37;4.37;;;2.10;;
22129;SDS011;11231;50.746;4.272;2023-06-04T06:35:03;4.32;;;2.00;;
22129;SDS011;11231;50.746;4.272;2023-06-04T06:37:29;3.80;;;1.92;;
22129;SDS011;11231;50.746;4.272;2023-06-04T06:39:55;5.88;;;2.58;;
22129;SDS011;11231;50.746;4.272;2023-06-04T06:42:20;8.32;;;2.20;;
22129;SDS011;11231;50.746;4.272;2023-06-04T06:44:48;6.90;;;2.15;;
22129;SDS011;11231;50.746;4.272;2023-06-04T06:47:14;4.00;;;1.92;;
22129;SDS011;11231;50.746;4.272;2023-06-04T06:49:40;5.45;;;1.90;;
22129;SDS011;11231;50.746;4.272;2023-06-04T06:52:06;5.22;;;2.17;;
22129;SDS011;11231;50.746;4.272;2023-06-04T06:54:32;4.95;;;1.98;;
22129;SDS011;11231;50.746;4.272;2023-06-04T06:56:58;4.25;;;1.70;;
22129;SDS011;11231;50.746;4.272;2023-06-04T06:59:24;6.35;;;2.15;;
22129;SDS011;11231;50.746;4.272;2023-06-04T07:01:50;4.68;;;2.00;;
22129;SDS011;11231;50.746;4.272;2023-06-04T07:04:16;4.00;;;2.03;;
22129;SDS011;11231;50.746;4.272;2023-06-04T07:06:42;4.95;;;1.80;;
22129;SDS011;11231;50.746;4.272;2023-06-04T07:09:08;5.15;;;1.88;;
22129;SDS011;11231;50.746;4.272;2023-06-04T07:11:34;5.05;;;1.80;;
22129;SDS011;11231;50.746;4.272;2023-06-04T07:14:00;5.40;;;1.90;;
22129;SDS011;11231;50.746;4.272;2023-06-04T07:16:29;5.75;;;1.85;;
22129;SDS011;11231;50.746;4.272;2023-06-04T07:18:55;5.85;;;1.63;;
22129;SDS011;11231;50.746;4.272;2023-06-04T07:21:21;7.20;;;1.90;;
22129;SDS011;11231;50.746;4.272;2023-06-04T07:23:49;4.47;;;1.73;;
22129;SDS011;11231;50.746;4.272;2023-06-04T07:26:18;3.00;;;1.73;;
22129;SDS011;11231;50.746;4.272;2023-06-04T07:28:44;4.25;;;1.67;;
22129;SDS011;11231;50.746;4.272;2023-06-04T07:31:10;6.63;;;1.75;;
22129;SDS011;11231;50.746;4.272;2023-06-04T07:33:36;3.85;;;1.60;;
22129;SDS011;11231;50.746;4.272;2023-06-04T07:36:09;4.60;;;1.80;;
22129;SDS011;11231;50.746;4.272;2023-06-04T07:38:38;3.03;;;1.45;;
22129;SDS011;11231;50.746;4.272;2023-06-04T07:41:04;5.35;;;1.70;;
22129;SDS011;11231;50.746;4.272;2023-06-04T07:43:29;6.88;;;2.05;;
22129;SDS011;11231;50.746;4.272;2023-06-04T07:45:55;6.07;;;1.80;;
22129;SDS011;11231;50.746;4.272;2023-06-04T07:48:21;6.25;;;1.70;;
22129;SDS011;11231;50.746;4.272;2023-06-04T07:50:47;10.15;;;1.65;;
22129;SDS011;11231;50.746;4.272;2023-06-04T07:53:13;5.57;;;1.42;;
22129;SDS011;11231;50.746;4.272;2023-06-04T07:55:38;4.18;;;1.77;;
22129;SDS011;11231;50.746;4.272;2023-06-04T07:58:04;4.95;;;1.70;;
22129;SDS011;11231;50.746;4.272;2023-06-04T08:00:30;5.68;;;1.88;;
22129;SDS011;11231;50.746;4.272;2023-06-04T08:02:56;4.75;;;1.40;;
22129;SDS011;11231;50.746;4.272;2023-06-04T08:05:22;3.50;;;1.60;;
22129;SDS011;11231;50.746;4.272;2023-06-04T08:07:48;4.43;;;1.70;;
22129;SDS011;11231;50.746;4.272;2023-06-04T08:10:13;3.65;;;1.30;;
22129;SDS011;11231;50.746;4.272;2023-06-04T08:12:40;3.33;;;1.60;;
22129;SDS011;11231;50.746;4.272;2023-06-04T08:15:05;6.13;;;1.75;;
22129;SDS011;11231;50.746;4.272;2023-06-04T08:17:32;3.10;;;1.38;;
22129;SDS011;11231;50.746;4.272;2023-06-04T08:19:58;4.00;;;1.52;;
22129;SDS011;11231;50.746;4.272;2023-06-04T08:22:23;3.55;;;1.45;;
22129;SDS011;11231;50.746;4.272;2023-06-04T08:24:49;4.18;;;1.50;;
22129;SDS011;11231;50.746;4.272;2023-06-04T08:27:15;6.00;;;1.50;;
22129;SDS011;11231;50.746;4.272;2023-06-04T08:29:42;3.58;;;1.30;;
22129;SDS011;11231;50.746;4.272;2023-06-04T08:32:08;4.15;;;1.48;;
22129;SDS011;11231;50.746;4.272;2023-06-04T08:34:34;3.95;;;1.40;;
22129;SDS011;11231;50.746;4.272;2023-06-04T08:37:00;6.00;;;1.35;;
22129;SDS011;11231;50.746;4.272;2023-06-04T08:39:26;4.47;;;1.45;;
22129;SDS011;11231;50.746;4.272;2023-06-04T08:41:52;4.88;;;1.65;;
22129;SDS011;11231;50.746;4.272;2023-06-04T08:44:21;4.00;;;1.67;;
22129;SDS011;11231;50.746;4.272;2023-06-04T08:46:50;5.60;;;1.52;;
22129;SDS011;11231;50.746;4.272;2023-06-04T08:49:20;4.80;;;1.40;;
22129;SDS011;11231;50.746;4.272;2023-06-04T08:51:48;4.47;;;1.38;;
22129;SDS011;11231;50.746;4.272;2023-06-04T08:54:14;4.00;;;1.33;;
22129;SDS011;11231;50.746;4.272;2023-06-04T08:56:41;3.97;;;1.33;;
22129;SDS011;11231;50.746;4.272;2023-06-04T08:59:09;4.72;;;1.27;;
22129;SDS011;11231;50.746;4.272;2023-06-04T09:01:36;4.00;;;1.45;;
22129;SDS011;11231;50.746;4.272;2023-06-04T09:04:05;4.18;;;1.33;;
22129;SDS011;11231;50.746;4.272;2023-06-04T09:06:32;4.13;;;1.27;;
22129;SDS011;11231;50.746;4.272;2023-06-04T09:08:58;5.13;;;1.20;;
22129;SDS011;11231;50.746;4.272;2023-06-04T09:11:59;4.63;;;1.40;;
22129;SDS011;11231;50.746;4.272;2023-06-04T09:14:20;4.72;;;1.30;;
22129;SDS011;11231;50.746;4.272;2023-06-04T09:16:46;5.10;;;1.35;;
22129;SDS011;11231;50.746;4.272;2023-06-04T09:19:14;5.28;;;1.30;;
22129;SDS011;11231;50.746;4.272;2023-06-04T09:24:16;4.07;;;1.58;;
22129;SDS011;11231;50.746;4.272;2023-06-04T09:26:42;5.22;;;1.60;;
22129;SDS011;11231;50.746;4.272;2023-06-04T09:29:08;3.78;;;1.30;;
22129;SDS011;11231;50.746;4.272;2023-06-04T09:31:34;4.40;;;1.50;;
22129;SDS011;11231;50.746;4.272;2023-06-04T09:34:04;3.95;;;1.25;;
22129;SDS011;11231;50.746;4.272;2023-06-04T09:36:31;3.22;;;1.27;;
22129;SDS011;11231;50.746;4.272;2023-06-04T09:39:01;6.63;;;1.40;;
22129;SDS011;11231;50.746;4.272;2023-06-04T09:41:28;7.10;;;1.60;;
22129;SDS011;11231;50.746;4.272;2023-06-04T09:44:01;5.15;;;1.45;;
22129;SDS011;11231;50.746;4.272;2023-06-04T09:46:30;3.20;;;1.60;;
22129;SDS011;11231;50.746;4.272;2023-06-04T09:49:00;3.20;;;1.40;;
22129;SDS011;11231;50.746;4.272;2023-06-04T09:51:27;4.05;;;1.67;;
22129;SDS011;11231;50.746;4.272;2023-06-04T09:53:54;4.38;;;1.33;;
22129;SDS011;11231;50.746;4.272;2023-06-04T09:56:24;3.42;;;1.40;;
22129;SDS011;11231;50.746;4.272;2023-06-04T09:58:58;4.07;;;1.50;;
22129;SDS011;11231;50.746;4.272;2023-06-04T10:01:29;3.65;;;1.20;;
22129;SDS011;11231;50.746;4.272;2023-06-04T10:03:55;5.47;;;1.55;;
22129;SDS011;11231;50.746;4.272;2023-06-04T10:06:27;5.07;;;1.33;;
22129;SDS011;11231;50.746;4.272;2023-06-04T10:08:57;5.38;;;1.60;;
22129;SDS011;11231;50.746;4.272;2023-06-04T10:11:34;3.40;;;1.30;;
22129;SDS011;11231;50.746;4.272;2023-06-04T10:14:07;3.70;;;1.35;;
22129;SDS011;11231;50.746;4.272;2023-06-04T10:16:34;4.82;;;2.00;;
22129;SDS011;11231;50.746;4.272;2023-06-04T10:19:04;4.60;;;1.50;;
22129;SDS011;11231;50.746;4.272;2023-06-04T10:21:32;5.18;;;1.77;;
22129;SDS011;11231;50.746;4.272;2023-06-04T10:24:00;7.28;;;1.83;;
22129;SDS011;11231;50.746;4.272;2023-06-04T10:26:26;6.65;;;1.60;;
22129;SDS011;11231;50.746;4.272;2023-06-04T10:28:52;4.97;;;1.50;;
22129;SDS011;11231;50.746;4.272;2023-06-04T10:31:18;5.25;;;1.52;;
22129;SDS011;11231;50.746;4.272;2023-06-04T10:33:44;5.43;;;1.35;;
22129;SDS011;11231;50.746;4.272;2023-06-04T10:36:20;3.40;;;1.40;;
22129;SDS011;11231;50.746;4.272;2023-06-04T10:38:48;2.75;;;1.17;;
22129;SDS011;11231;50.746;4.272;2023-06-04T10:41:16;3.53;;;1.20;;
22129;SDS011;11231;50.746;4.272;2023-06-04T10:43:43;5.30;;;1.60;;
22129;SDS011;11231;50.746;4.272;2023-06-04T10:46:11;4.25;;;1.40;;
22129;SDS011;11231;50.746;4.272;2023-06-04T10:48:46;4.53;;;1.40;;
22129;SDS011;11231;50.746;4.272;2023-06-04T10:51:13;3.60;;;1.15;;
22129;SDS011;11231;50.746;4.272;2023-06-04T10:53:40;5.25;;;1.70;;
22129;SDS011;11231;50.746;4.272;2023-06-04T10:56:05;7.10;;;1.70;;
22129;SDS011;11231;50.746;4.272;2023-06-04T10:58:34;7.90;;;1.60;;
22129;SDS011;11231;50.746;4.272;2023-06-04T11:01:00;4.95;;;1.40;;
22129;SDS011;11231;50.746;4.272;2023-06-04T11:03:38;5.95;;;1.55;;
22129;SDS011;11231;50.746;4.272;2023-06-04T11:06:14;6.03;;;1.65;;
22129;SDS011;11231;50.746;4.272;2023-06-04T11:08:41;7.60;;;1.60;;
22129;SDS011;11231;50.746;4.272;2023-06-04T11:11:11;6.47;;;1.58;;
22129;SDS011;11231;50.746;4.272;2023-06-04T11:13:41;4.38;;;1.95;;
22129;SDS011;11231;50.746;4.272;2023-06-04T11:16:20;5.18;;;1.60;;
22129;SDS011;11231;50.746;4.272;2023-06-04T11:18:55;8.38;;;2.85;;
22129;SDS011;11231;50.746;4.272;2023-06-04T11:21:22;5.65;;;1.40;;
22129;SDS011;11231;50.746;4.272;2023-06-04T11:23:49;4.80;;;1.70;;
22129;SDS011;11231;50.746;4.272;2023-06-04T11:26:20;3.83;;;1.40;;
22129;SDS011;11231;50.746;4.272;2023-06-04T11:28:49;4.22;;;1.50;;
22129;SDS011;11231;50.746;4.272;2023-06-04T11:31:15;4.10;;;1.27;;
22129;SDS011;11231;50.746;4.272;2023-06-04T11:33:41;3.55;;;1.23;;
22129;SDS011;11231;50.746;4.272;2023-06-04T11:36:11;3.10;;;1.60;;
22129;SDS011;11231;50.746;4.272;2023-06-04T11:39:06;4.47;;;1.48;;
22129;SDS011;11231;50.746;4.272;2023-06-04T11:41:35;4.97;;;1.45;;
22129;SDS011;11231;50.746;4.272;2023-06-04T11:44:02;3.50;;;1.10;;
22129;SDS011;11231;50.746;4.272;2023-06-04T11:46:30;3.40;;;1.17;;
22129;SDS011;11231;50.746;4.272;2023-06-04T11:48:57;5.32;;;1.40;;
22129;SDS011;11231;50.746;4.272;2023-06-04T11:51:24;5.57;;;1.60;;
22129;SDS011;11231;50.746;4.272;2023-06-04T11:53:49;3.90;;;1.55;;
22129;SDS011;11231;50.746;4.272;2023-06-04T11:56:15;5.93;;;1.40;;
22129;SDS011;11231;50.746;4.272;2023-06-04T11:58:42;4.40;;;1.45;;
22129;SDS011;11231;50.746;4.272;2023-06-04T12:01:08;6.30;;;1.70;;
22129;SDS011;11231;50.746;4.272;2023-06-04T12:03:38;3.10;;;1.30;;
22129;SDS011;11231;50.746;4.272;2023-06-04T12:06:23;7.68;;;1.75;;
22129;SDS011;11231;50.746;4.272;2023-06-04T12:08:53;6.25;;;2.00;;
22129;SDS011;11231;50.746;4.272;2023-06-04T12:11:30;5.55;;;1.50;;
22129;SDS011;11231;50.746;4.272;2023-06-04T12:14:04;3.05;;;1.23;;
22129;SDS011;11231;50.746;4.272;2023-06-04T12:16:31;2.95;;;1.20;;
22129;SDS011;11231;50.746;4.272;2023-06-04T12:19:07;5.00;;;1.40;;
22129;SDS011;11231;50.746;4.272;2023-06-04T12:21:34;6.57;;;1.35;;
22129;SDS011;11231;50.746;4.272;2023-06-04T12:24:06;4.97;;;1.50;;
22129;SDS011;11231;50.746;4.272;2023-06-04T12:26:35;3.40;;;1.25;;
22129;SDS011;11231;50.746;4.272;2023-06-04T12:31:43;6.32;;;1.75;;
22129;SDS011;11231;50.746;4.272;2023-06-04T12:34:13;4.47;;;1.60;;
22129;SDS011;11231;50.746;4.272;2023-06-04T12:36:39;5.32;;;1.30;;
22129;SDS011;11231;50.746;4.272;2023-06-04T12:39:06;6.00;;;1.30;;
22129;SDS011;11231;50.746;4.272;2023-06-04T12:41:32;5.07;;;1.20;;
22129;SDS011;11231;50.746;4.272;2023-06-04T12:43:58;4.47;;;1.50;;
22129;SDS011;11231;50.746;4.272;2023-06-04T12:46:24;3.33;;;1.50;;
22129;SDS011;11231;50.746;4.272;2023-06-04T12:48:51;5.55;;;1.48;;
22129;SDS011;11231;50.746;4.272;2023-06-04T12:51:17;4.30;;;1.50;;
22129;SDS011;11231;50.746;4.272;2023-06-04T12:53:43;3.63;;;1.23;;
22129;SDS011;11231;50.746;4.272;2023-06-04T12:56:09;2.70;;;1.10;;
22129;SDS011;11231;50.746;4.272;2023-06-04T12:58:36;3.35;;;1.27;;
22129;SDS011;11231;50.746;4.272;2023-06-04T13:01:02;3.83;;;1.60;;
22129;SDS011;11231;50.746;4.272;2023-06-04T13:03:29;4.82;;;1.30;;
22129;SDS011;11231;50.746;4.272;2023-06-04T13:05:56;6.50;;;1.40;;
22129;SDS011;11231;50.746;4.272;2023-06-04T13:08:22;4.30;;;1.70;;
22129;SDS011;11231;50.746;4.272;2023-06-04T13:10:49;3.85;;;1.60;;
22129;SDS011;11231;50.746;4.272;2023-06-04T13:13:16;5.45;;;1.38;;
22129;SDS011;11231;50.746;4.272;2023-06-04T13:15:42;2.58;;;1.48;;
22129;SDS011;11231;50.746;4.272;2023-06-04T13:18:08;4.10;;;1.27;;
22129;SDS011;11231;50.746;4.272;2023-06-04T13:20:37;5.22;;;1.77;;
22129;SDS011;11231;50.746;4.272;2023-06-04T13:23:05;5.47;;;1.50;;
22129;SDS011;11231;50.746;4.272;2023-06-04T13:25:31;8.95;;;1.60;;
22129;SDS011;11231;50.746;4.272;2023-06-04T13:28:00;4.95;;;1.60;;
22129;SDS011;11231;50.746;4.272;2023-06-04T13:30:27;5.70;;;1.25;;
22129;SDS011;11231;50.746;4.272;2023-06-04T13:32:53;3.80;;;1.50;;
22129;SDS011;11231;50.746;4.272;2023-06-04T13:35:19;3.83;;;1.23;;
22129;SDS011;11231;50.746;4.272;2023-06-04T13:37:45;6.25;;;1.90;;
22129;SDS011;11231;50.746;4.272;2023-06-04T13:40:12;2.78;;;1.55;;
22129;SDS011;11231;50.746;4.272;2023-06-04T13:42:38;3.55;;;1.60;;
22129;SDS011;11231;50.746;4.272;2023-06-04T13:45:04;4.28;;;1.45;;
22129;SDS011;11231;50.746;4.272;2023-06-04T13:47:30;4.28;;;1.50;;
22129;SDS011;11231;50.746;4.272;2023-06-04T13:49:57;2.55;;;1.27;;
22129;SDS011;11231;50.746;4.272;2023-06-04T13:52:23;4.25;;;2.05;;
22129;SDS011;11231;50.746;4.272;2023-06-04T13:54:48;5.53;;;1.80;;
22129;SDS011;11231;50.746;4.272;2023-06-04T13:57:14;4.88;;;1.50;;
22129;SDS011;11231;50.746;4.272;2023-06-04T13:59:41;4.95;;;1.60;;
22129;SDS011;11231;50.746;4.272;2023-06-04T14:02:06;5.72;;;1.55;;
22129;SDS011;11231;50.746;4.272;2023-06-04T14:04:32;3.85;;;1.80;;
22129;SDS011;11231;50.746;4.272;2023-06-04T14:06:58;4.70;;;1.30;;
22129;SDS011;11231;50.746;4.272;2023-06-04T14:09:24;5.53;;;1.80;;
22129;SDS011;11231;50.746;4.272;2023-06-04T14:11:50;6.05;;;1.83;;
22129;SDS011;11231;50.746;4.272;2023-06-04T14:14:16;4.30;;;1.48;;
22129;SDS011;11231;50.746;4.272;2023-06-04T14:16:46;3.85;;;1.50;;
22129;SDS011;11231;50.746;4.272;2023-06-04T14:19:12;5.22;;;1.70;;
22129;SDS011;11231;50.746;4.272;2023-06-04T14:21:38;3.28;;;1.50;;
22129;SDS011;11231;50.746;4.272;2023-06-04T14:24:05;7.45;;;1.90;;
22129;SDS011;11231;50.746;4.272;2023-06-04T14:26:30;4.30;;;1.50;;
22129;SDS011;11231;50.746;4.272;2023-06-04T14:28:56;4.25;;;1.65;;
22129;SDS011;11231;50.746;4.272;2023-06-04T14:31:22;3.58;;;1.80;;
22129;SDS011;11231;50.746;4.272;2023-06-04T14:33:48;6.15;;;1.70;;
22129;SDS011;11231;50.746;4.272;2023-06-04T14:36:14;4.22;;;1.65;;
22129;SDS011;11231;50.746;4.272;2023-06-04T14:38:40;2.38;;;1.38;;
22129;SDS011;11231;50.746;4.272;2023-06-04T14:41:06;4.45;;;1.38;;
22129;SDS011;11231;50.746;4.272;2023-06-04T14:43:32;8.63;;;1.73;;
22129;SDS011;11231;50.746;4.272;2023-06-04T14:45:58;5.20;;;1.45;;
22129;SDS011;11231;50.746;4.272;2023-06-04T14:48:24;4.43;;;1.33;;
22129;SDS011;11231;50.746;4.272;2023-06-04T14:50:49;4.85;;;1.60;;
22129;SDS011;11231;50.746;4.272;2023-06-04T14:53:18;3.35;;;1.20;;
22129;SDS011;11231;50.746;4.272;2023-06-04T14:55:45;4.88;;;1.60;;
22129;SDS011;11231;50.746;4.272;2023-06-04T14:58:14;4.13;;;1.45;;
22129;SDS011;11231;50.746;4.272;2023-06-04T15:00:41;3.38;;;1.20;;